Time;durP1;ratioP1;P1;durP2;ratioP2;P2;SDS_P1;SDS_P2;PMS_P1;PMS_P2;Temp;Humidity;BMP_temperature;BMP_pressure;BME280_temperature;BME280_humidity;BME280_pressure;Samples;Min_cycle;Max_cycle;Signal;HPM_P1;HPM_P2
2023/02/13 00:00:42;;;;;;;;;;;;;;;7.19;46.82;102879.69;5012316;28;19917;-72
2023/02/13 00:03:34;;;;;;;;;;;;;;;7.21;45.97;102872.16;5017219;28;19914;-72
2023/02/13 00:06:23;;;;;;;;;;;;;;;7.24;45.93;102883.31;5014578;28;19914;-73
2023/02/13 00:09:13;;;;;;;;;;;;;;;7.21;45.63;102877.56;5018249;28;19913;-72
2023/02/13 00:12:05;;;;;;;;;;;;;;;7.32;45.40;102874.81;4999687;28;20455;-72
2023/02/13 00:14:52;;;;;;;;;;;;;;;7.17;45.90;102879.09;5004647;28;19918;-72
2023/02/13 00:17:44;;;;;;;;;;;;;;;7.18;45.90;102883.44;5002181;28;19917;-72
2023/02/13 00:20:36;;;;;;;;;;;;;;;7.07;46.34;102870.75;5009824;28;19917;-72
2023/02/13 00:23:28;;;;;;;;;;;;;;;7.07;46.17;102884.28;5012600;28;19913;-72
2023/02/13 00:26:20;;;;;;;;;;;;;;;7.20;46.31;102884.03;5012368;28;19913;-73
2023/02/13 00:29:13;;;;;;;;;;;;;;;7.16;46.26;102878.25;5015545;28;19913;-73
2023/02/13 00:32:02;;;;;;;;;;;;;;;7.16;46.11;102885.59;5020664;28;20297;-72
2023/02/13 00:34:55;;;;;;;;;;;;;;;6.88;46.80;102881.75;5016526;28;19917;-72
2023/02/13 00:37:47;;;;;;;;;;;;;;;6.83;47.05;102883.50;5022407;28;19913;-72
2023/02/13 00:40:39;;;;;;;;;;;;;;;6.87;47.01;102893.63;5017053;28;19913;-72
2023/02/13 00:43:26;;;;;;;;;;;;;;;6.96;46.49;102888.66;5004776;28;19917;-73
2023/02/13 00:46:19;;;;;;;;;;;;;;;7.11;47.28;102896.31;5003623;28;19913;-73
2023/02/13 00:49:11;;;;;;;;;;;;;;;7.02;46.83;102897.72;5012442;28;20408;-72
2023/02/13 00:52:03;;;;;;;;;;;;;;;6.87;46.88;102899.03;4999801;28;19913;-72
2023/02/13 00:54:54;;;;;;;;;;;;;;;6.90;46.81;102899.63;4996951;28;19918;-72
2023/02/13 00:57:46;;;;;;;;;;;;;;;6.83;47.00;102894.31;5008245;28;19914;-73
2023/02/13 01:00:38;;;;;;;;;;;;;;;6.76;47.70;102891.72;5004101;28;19996;-73
2023/02/13 01:03:30;;;;;;;;;;;;;;;6.75;47.50;102903.63;5015888;28;19925;-73
2023/02/13 01:06:22;;;;;;;;;;;;;;;6.85;47.73;102903.88;5019871;28;19913;-72
2023/02/13 01:09:14;;;;;;;;;;;;;;;6.81;47.12;102902.66;5018174;28;19913;-73
2023/02/13 01:12:04;;;;;;;;;;;;;;;6.82;47.86;102903.50;5015755;28;19917;-72
2023/02/13 01:14:56;;;;;;;;;;;;;;;6.70;47.29;102895.41;5004381;28;19917;-72
2023/02/13 01:17:48;;;;;;;;;;;;;;;6.64;47.84;102904.44;5017566;28;19913;-72
2023/02/13 01:20:39;;;;;;;;;;;;;;;6.81;47.21;102905.38;5006187;28;19914;-72
2023/02/13 01:23:37;;;;;;;;;;;;;;;6.72;47.38;102898.69;5015367;28;19922;-73
2023/02/13 01:26:28;;;;;;;;;;;;;;;6.85;47.19;102893.03;5000834;28;20302;-72
2023/02/13 01:29:20;;;;;;;;;;;;;;;6.83;47.32;102897.03;5005192;28;19913;-72
2023/02/13 01:32:12;;;;;;;;;;;;;;;6.94;47.44;102896.19;5015776;28;19913;-71
2023/02/13 01:35:04;;;;;;;;;;;;;;;6.97;46.75;102898.41;5021886;28;19921;-70
2023/02/13 01:37:56;;;;;;;;;;;;;;;6.76;47.34;102894.44;5019112;28;20378;-70
2023/02/13 01:40:50;;;;;;;;;;;;;;;6.77;47.49;102897.97;5017704;28;19913;-70
2023/02/13 01:44:01;;;;;;;;;;;;;;;6.80;47.83;102900.22;5016261;28;19913;-70
2023/02/13 01:46:53;;;;;;;;;;;;;;;6.63;47.93;102894.69;5013239;28;19913;-70
2023/02/13 01:49:47;;;;;;;;;;;;;;;6.62;48.15;102893.03;5015650;28;19913;-70
2023/02/13 01:52:41;;;;;;;;;;;;;;;6.64;47.94;102893.63;5016955;28;19914;-70
2023/02/13 01:55:33;;;;;;;;;;;;;;;6.75;48.28;102892.81;5016849;28;19913;-70
2023/02/13 01:58:27;;;;;;;;;;;;;;;6.76;48.29;102894.44;5000174;28;19913;-71
2023/02/13 02:01:19;;;;;;;;;;;;;;;6.71;47.90;102882.69;5003156;28;19913;-70
2023/02/13 02:04:13;;;;;;;;;;;;;;;6.68;48.55;102885.88;5015565;28;20298;-70
2023/02/13 02:07:29;;;;;;;;;;;;;;;6.73;48.55;102886.81;5017997;28;19913;-71
2023/02/13 02:10:20;;;;;;;;;;;;;;;6.75;48.26;102890.13;4998652;28;19913;-71
2023/02/13 02:13:15;;;;;;;;;;;;;;;6.76;47.96;102889.03;5000635;28;19917;-71
2023/02/13 02:16:07;;;;;;;;;;;;;;;6.25;49.01;102887.00;5015485;28;19913;-70
2023/02/13 02:18:59;;;;;;;;;;;;;;;6.48;49.24;102888.94;5013842;28;19976;-70
2023/02/13 02:22:00;;;;;;;;;;;;;;;6.38;49.31;102885.97;5003635;28;19913;-70
2023/02/13 02:25:14;;;;;;;;;;;;;;;6.29;50.03;102885.53;4999402;28;19913;-71
2023/02/13 02:28:22;;;;;;;;;;;;;;;6.42;49.72;102885.28;5017079;28;19917;-70
2023/02/13 02:31:23;;;;;;;;;;;;;;;6.58;49.23;102886.47;5011717;28;19913;-70
2023/02/13 02:34:20;;;;;;;;;;;;;;;6.61;48.94;102877.03;5003319;28;20378;-71
2023/02/13 02:37:19;;;;;;;;;;;;;;;6.54;49.33;102879.88;5000528;28;19917;-71
2023/02/13 02:40:27;;;;;;;;;;;;;;;6.63;49.64;102873.06;5004258;28;19914;-71
2023/02/13 02:43:31;;;;;;;;;;;;;;;6.60;48.96;102881.66;5015257;28;20286;-70
2023/02/13 02:46:37;;;;;;;;;;;;;;;6.61;49.62;102874.34;5013319;28;19912;-71
2023/02/13 02:53:03;;;;;;;;;;;;;;;6.54;49.61;102865.56;5001073;28;19921;-71
2023/02/13 02:55:59;;;;;;;;;;;;;;;6.62;49.55;102871.41;4996231;28;19917;-70
2023/02/13 03:13:17;;;;;;;;;;;;;;;6.64;49.21;102858.50;5025014;28;19913;-71
2023/02/13 03:14:44;;;;;;;;;;;;;;;6.61;49.21;102861.66;5015202;28;20398;-70
2023/02/13 03:24:11;;;;;;;;;;;;;;;6.58;49.29;102866.72;5011478;28;19921;-70
2023/02/13 03:27:03;;;;;;;;;;;;;;;6.63;49.31;102870.38;5024415;28;19912;-70
2023/02/13 03:30:10;;;;;;;;;;;;;;;6.29;49.89;102866.59;5015835;28;19913;-70
2023/02/13 03:33:12;;;;;;;;;;;;;;;6.32;50.12;102873.41;5014205;28;19917;-70
2023/02/13 03:39:36;;;;;;;;;;;;;;;6.40;49.49;102867.63;5015743;28;19913;-70
2023/02/13 03:42:43;;;;;;;;;;;;;;;6.56;49.51;102872.34;5016497;28;19913;-70
2023/02/13 03:45:55;;;;;;;;;;;;;;;6.64;48.63;102863.91;5016230;28;20305;-71
2023/02/13 03:52:13;;;;;;;;;;;;;;;5.56;51.10;102871.44;5009938;28;19913;-73
2023/02/13 04:01:25;;;;;;;;;;;;;;;5.91;51.32;102868.88;5016059;28;19913;-71
2023/02/13 04:04:23;;;;;;;;;;;;;;;6.00;51.66;102860.19;5015670;28;20298;-70
2023/02/13 04:07:28;;;;;;;;;;;;;;;5.94;51.25;102869.22;5013077;28;19914;-70
2023/02/13 04:10:19;;;;;;;;;;;;;;;5.61;52.21;102871.56;4999577;28;19914;-71
2023/02/13 04:13:17;;;;;;;;;;;;;;;5.21;54.02;102875.84;5014290;28;19917;-70
2023/02/13 04:16:14;;;;;;;;;;;;;;;5.76;53.26;102877.38;5013967;28;19913;-70
2023/02/13 04:19:06;;;;;;;;;;;;;;;5.87;52.01;102875.78;5012620;28;19913;-70
2023/02/13 04:22:01;;;;;;;;;;;;;;;5.57;52.84;102871.22;5010628;28;19913;-71
2023/02/13 04:24:53;;;;;;;;;;;;;;;5.34;53.62;102870.25;4996314;28;19914;-70
2023/02/13 04:27:45;;;;;;;;;;;;;;;5.63;53.59;102872.16;4998057;28;20378;-71
2023/02/13 04:30:37;;;;;;;;;;;;;;;5.19;54.58;102876.03;4997095;28;20294;-70
2023/02/13 04:33:29;;;;;;;;;;;;;;;5.12;55.23;102875.31;4995069;28;19918;-70
2023/02/13 04:36:21;;;;;;;;;;;;;;;5.18;55.12;102863.63;5000757;28;19913;-71
2023/02/13 04:39:13;;;;;;;;;;;;;;;5.10;55.32;102878.25;5015211;28;19913;-70
2023/02/13 04:42:05;;;;;;;;;;;;;;;4.61;56.69;102875.66;5009695;28;19914;-70
2023/02/13 04:44:57;;;;;;;;;;;;;;;4.57;56.64;102871.78;5017704;28;20366;-70
2023/02/13 04:47:55;;;;;;;;;;;;;;;4.74;56.62;102880.91;5015395;28;20314;-70
2023/02/13 04:50:47;;;;;;;;;;;;;;;5.14;56.41;102882.13;5008045;28;20379;-70
2023/02/13 04:53:39;;;;;;;;;;;;;;;5.36;54.79;102887.88;5016089;28;19917;-71
2023/02/13 04:56:31;;;;;;;;;;;;;;;5.68;53.94;102880.41;4997096;28;20516;-71
2023/02/13 04:59:23;;;;;;;;;;;;;;;5.70;52.75;102883.69;5015488;28;19913;-71
2023/02/13 05:02:15;;;;;;;;;;;;;;;5.83;52.24;102880.81;5014715;28;20386;-71
2023/02/13 05:05:07;;;;;;;;;;;;;;;5.47;53.59;102886.28;5013033;28;19914;-71
2023/02/13 05:07:59;;;;;;;;;;;;;;;5.67;53.24;102883.31;5017192;28;19913;-70
2023/02/13 05:10:50;;;;;;;;;;;;;;;5.32;53.77;102891.25;5014542;28;19913;-70
2023/02/13 05:13:42;;;;;;;;;;;;;;;5.00;54.20;102885.19;5011418;28;19921;-70
2023/02/13 05:16:34;;;;;;;;;;;;;;;4.59;55.84;102881.28;5009784;28;20313;-70
2023/02/13 05:19:26;;;;;;;;;;;;;;;4.68;56.08;102889.88;5013296;28;19913;-70
2023/02/13 05:25:26;;;;;;;;;;;;;;;5.10;55.19;102888.19;5017789;28;19920;-70
2023/02/13 05:31:34;;;;;;;;;;;;;;;5.08;55.01;102888.41;5002817;28;19914;-70
2023/02/13 05:34:26;;;;;;;;;;;;;;;5.67;54.38;102886.84;5016313;28;20278;-70
2023/02/13 05:37:18;;;;;;;;;;;;;;;5.86;53.29;102890.31;5018381;28;19913;-70
2023/02/13 05:40:10;;;;;;;;;;;;;;;6.01;52.95;102888.03;5016357;28;19913;-70
2023/02/13 05:43:03;;;;;;;;;;;;;;;5.56;53.29;102890.31;5014089;28;19918;-70
2023/02/13 05:46:02;;;;;;;;;;;;;;;5.33;53.58;102904.53;5019080;28;19913;-70
2023/02/13 05:48:54;;;;;;;;;;;;;;;4.85;55.10;102904.44;5016485;28;19913;-68
2023/02/13 05:51:46;;;;;;;;;;;;;;;5.10;55.26;102899.81;5018800;28;19913;-69
2023/02/13 05:54:38;;;;;;;;;;;;;;;4.81;54.74;102903.25;5019557;28;19918;-69
2023/02/13 05:57:30;;;;;;;;;;;;;;;4.28;56.17;102910.97;5011928;28;19913;-69
2023/02/13 06:00:22;;;;;;;;;;;;;;;4.48;56.04;102925.09;5014772;28;19914;-68
2023/02/13 06:03:13;;;;;;;;;;;;;;;4.88;54.67;102920.16;5022988;28;19913;-69
2023/02/13 06:06:05;;;;;;;;;;;;;;;4.65;54.79;102914.59;5023295;28;19914;-68
2023/02/13 06:08:57;;;;;;;;;;;;;;;4.68;55.06;102919.53;5011925;28;19913;-68
2023/02/13 06:11:49;;;;;;;;;;;;;;;5.12;54.27;102927.38;5014018;28;19913;-68
2023/02/13 06:14:38;;;;;;;;;;;;;;;5.01;55.02;102933.50;5015250;28;19917;-68
2023/02/13 06:17:30;;;;;;;;;;;;;;;5.52;54.01;102937.69;5016702;28;19913;-68
2023/02/13 06:20:22;;;;;;;;;;;;;;;5.21;53.31;102940.56;5008961;28;19918;-68
2023/02/13 06:23:14;;;;;;;;;;;;;;;5.02;54.60;102939.72;5014081;28;19914;-68
2023/02/13 06:26:07;;;;;;;;;;;;;;;5.21;55.16;102945.94;5022695;28;19913;-68
2023/02/13 06:28:59;;;;;;;;;;;;;;;5.08;54.31;102946.91;5025126;28;19916;-68
2023/02/13 06:31:51;;;;;;;;;;;;;;;5.11;54.32;102946.47;5021247;28;19913;-68
2023/02/13 06:34:43;;;;;;;;;;;;;;;4.91;55.29;102952.06;5019460;28;19925;-68
2023/02/13 06:37:35;;;;;;;;;;;;;;;5.37;54.52;102959.66;5023935;28;19913;-67
2023/02/13 06:40:24;;;;;;;;;;;;;;;5.47;53.42;102951.03;5015995;28;19913;-68
2023/02/13 06:43:16;;;;;;;;;;;;;;;5.56;53.18;102957.78;4995554;28;19914;-68
2023/02/13 06:46:08;;;;;;;;;;;;;;;5.52;53.61;102959.28;5030904;28;19913;-68
2023/02/13 06:49:00;;;;;;;;;;;;;;;5.60;53.57;102959.78;5025386;28;19917;-68
2023/02/13 06:51:52;;;;;;;;;;;;;;;5.63;53.84;102960.41;5009737;28;20418;-68
2023/02/13 06:54:42;;;;;;;;;;;;;;;5.57;54.08;102960.25;5004863;28;19933;-68
2023/02/13 06:57:33;;;;;;;;;;;;;;;5.54;53.41;102949.06;5009006;28;19917;-68
2023/02/13 07:00:25;;;;;;;;;;;;;;;5.21;53.42;102962.97;5011503;28;19917;-67
2023/02/13 07:03:17;;;;;;;;;;;;;;;5.52;52.83;102970.09;5015441;28;19913;-68
2023/02/13 07:06:07;;;;;;;;;;;;;;;5.07;54.00;102973.06;5010680;28;20381;-68
2023/02/13 07:08:59;;;;;;;;;;;;;;;5.47;53.16;102967.22;5019576;28;20391;-68
2023/02/13 07:11:49;;;;;;;;;;;;;;;5.57;52.79;102975.63;5009074;28;19917;-68
2023/02/13 07:14:41;;;;;;;;;;;;;;;5.49;53.39;102965.13;5006898;28;20389;-68
2023/02/13 07:17:33;;;;;;;;;;;;;;;5.02;54.98;102964.00;5013866;28;19917;-68
2023/02/13 07:20:25;;;;;;;;;;;;;;;5.18;55.40;102975.00;5013658;28;19914;-68
2023/02/13 07:23:17;;;;;;;;;;;;;;;5.32;54.82;102977.59;5013530;28;19913;-68
2023/02/13 07:26:09;;;;;;;;;;;;;;;5.03;55.31;102971.84;5016192;28;19913;-69
2023/02/13 07:29:04;;;;;;;;;;;;;;;4.84;56.63;102970.16;5007658;28;19913;-69
2023/02/13 07:31:56;;;;;;;;;;;;;;;5.15;57.00;102978.16;5016086;28;20382;-68
2023/02/13 07:34:48;;;;;;;;;;;;;;;5.29;56.26;102978.00;5014870;28;19917;-68
2023/02/13 07:37:40;;;;;;;;;;;;;;;5.09;57.37;102972.81;5005559;28;19913;-68
2023/02/13 07:40:32;;;;;;;;;;;;;;;5.13;57.99;102980.25;5016326;28;20308;-68
2023/02/13 07:43:24;;;;;;;;;;;;;;;5.32;56.92;102978.41;4998897;28;19913;-68
2023/02/13 07:46:16;;;;;;;;;;;;;;;5.48;57.26;102983.22;5016937;28;19913;-68
2023/02/13 07:49:08;;;;;;;;;;;;;;;5.60;57.24;102975.16;5008101;28;19913;-68
2023/02/13 07:52:00;;;;;;;;;;;;;;;5.76;57.03;102981.81;5010156;28;19914;-68
2023/02/13 07:54:50;;;;;;;;;;;;;;;5.79;57.54;102976.78;5011322;28;19918;-68
2023/02/13 07:57:42;;;;;;;;;;;;;;;5.94;57.45;102971.81;5007094;28;19913;-68
2023/02/13 08:00:34;;;;;;;;;;;;;;;5.96;57.41;102961.63;5017094;28;20366;-68
2023/02/13 08:03:26;;;;;;;;;;;;;;;6.16;57.69;102961.34;4996904;28;19914;-68
2023/02/13 08:06:18;;;;;;;;;;;;;;;6.17;57.50;102964.88;4994457;28;20286;-68
2023/02/13 08:12:24;;;;;;;;;;;;;;;6.34;56.61;102965.88;5013054;28;19913;-68
2023/02/13 08:15:16;;;;;;;;;;;;;;;6.39;55.16;102971.41;5017434;28;19918;-68
2023/02/13 08:18:08;;;;;;;;;;;;;;;6.26;55.44;102971.59;5010658;28;19913;-68
2023/02/13 08:20:58;;;;;;;;;;;;;;;6.45;55.38;102963.16;5007895;28;19917;-67
2023/02/13 08:23:47;;;;;;;;;;;;;;;6.70;55.29;102960.28;5012863;28;19913;-68
2023/02/13 08:26:39;;;;;;;;;;;;;;;6.94;53.72;102965.69;5015306;28;19913;-68
2023/02/13 08:29:31;;;;;;;;;;;;;;;6.68;53.91;102966.97;5012530;28;19913;-68
2023/02/13 08:32:23;;;;;;;;;;;;;;;6.86;53.52;102962.28;5011885;28;20386;-68
2023/02/13 08:35:12;;;;;;;;;;;;;;;6.88;53.46;102956.63;5014194;28;19917;-68
2023/02/13 08:38:08;;;;;;;;;;;;;;;7.11;52.95;102962.03;5017752;28;19914;-68
2023/02/13 08:41:00;;;;;;;;;;;;;;;6.97;52.28;102959.81;5015549;28;20370;-68
2023/02/13 08:43:52;;;;;;;;;;;;;;;7.13;52.75;102959.91;5013266;28;19913;-68
2023/02/13 08:46:44;;;;;;;;;;;;;;;7.11;52.25;102955.81;5017183;28;19913;-68
2023/02/13 08:49:37;;;;;;;;;;;;;;;7.03;52.64;102956.97;5014954;28;19914;-68
2023/02/13 08:52:28;;;;;;;;;;;;;;;7.08;52.59;102962.50;5011753;28;19913;-67
2023/02/13 08:55:21;;;;;;;;;;;;;;;7.19;52.27;102958.16;5015363;28;20535;-68
2023/02/13 08:58:13;;;;;;;;;;;;;;;7.11;52.78;102955.81;5013949;28;20308;-68
2023/02/13 09:01:06;;;;;;;;;;;;;;;6.95;52.76;102961.94;5018111;28;20374;-68
2023/02/13 09:03:58;;;;;;;;;;;;;;;7.05;52.82;102957.59;5013845;28;19913;-68
2023/02/13 09:06:50;;;;;;;;;;;;;;;7.17;52.71;102960.25;5013560;28;19913;-69
2023/02/13 09:09:41;;;;;;;;;;;;;;;7.27;52.51;102952.34;5020991;28;19914;-69
2023/02/13 09:12:33;;;;;;;;;;;;;;;7.41;52.41;102952.94;5017657;28;19918;-68
2023/02/13 09:15:25;;;;;;;;;;;;;;;7.59;51.74;102952.75;5015857;28;19925;-69
2023/02/13 09:18:17;;;;;;;;;;;;;;;7.54;51.46;102949.94;5017841;28;20390;-68
2023/02/13 09:21:11;;;;;;;;;;;;;;;7.68;52.47;102954.03;5013253;28;19913;-68
2023/02/13 09:24:03;;;;;;;;;;;;;;;7.82;51.78;102957.28;5016278;28;20386;-68
2023/02/13 09:26:55;;;;;;;;;;;;;;;7.93;52.01;102953.69;5018124;28;19913;-68
2023/02/13 09:29:47;;;;;;;;;;;;;;;7.97;51.69;102952.16;5009950;28;19913;-67
2023/02/13 09:32:42;;;;;;;;;;;;;;;8.05;51.16;102951.75;5016835;28;19913;-68
2023/02/13 09:35:34;;;;;;;;;;;;;;;8.11;52.15;102959.75;5017787;28;19918;-67
2023/02/13 09:38:26;;;;;;;;;;;;;;;8.18;51.57;102950.66;5008392;28;19913;-68
2023/02/13 09:41:18;;;;;;;;;;;;;;;8.21;51.54;102950.16;5018290;28;19913;-68
2023/02/13 09:44:11;;;;;;;;;;;;;;;8.39;52.14;102956.19;5016861;28;19913;-68
2023/02/13 09:47:05;;;;;;;;;;;;;;;8.38;52.12;102956.44;5019931;28;19913;-68
2023/02/13 09:49:58;;;;;;;;;;;;;;;8.51;52.18;102954.22;5009997;28;19922;-67
2023/02/13 09:52:50;;;;;;;;;;;;;;;8.53;52.70;102954.78;5005094;28;19914;-68
2023/02/13 09:55:51;;;;;;;;;;;;;;;8.75;52.46;102948.63;5007967;28;19922;-68
2023/02/13 09:58:44;;;;;;;;;;;;;;;8.85;52.26;102949.59;5007374;28;19917;-68
2023/02/13 10:01:46;;;;;;;;;;;;;;;8.76;52.10;102950.25;5013370;28;19921;-66
2023/02/13 10:04:38;;;;;;;;;;;;;;;8.96;51.70;102956.81;5005391;28;20298;-68
2023/02/13 10:07:34;;;;;;;;;;;;;;;9.12;50.52;102947.00;5014986;28;19913;-68
2023/02/13 10:10:42;;;;;;;;;;;;;;;9.14;50.42;102952.19;5016994;28;20106;-66
2023/02/13 10:13:46;;;;;;;;;;;;;;;9.28;49.69;102951.56;5007075;28;19921;-67
2023/02/13 10:16:45;;;;;;;;;;;;;;;9.48;49.63;102945.56;5011333;28;19917;-68
2023/02/13 10:19:40;;;;;;;;;;;;;;;9.53;49.26;102947.53;5016480;28;19914;-68
2023/02/13 10:22:42;;;;;;;;;;;;;;;9.49;49.14;102940.97;5009655;28;20521;-68
2023/02/13 10:25:38;;;;;;;;;;;;;;;9.67;49.15;102943.34;5015506;28;19917;-68
2023/02/13 10:28:29;;;;;;;;;;;;;;;9.75;48.32;102934.75;5016709;28;19913;-68
2023/02/13 10:31:24;;;;;;;;;;;;;;;9.95;48.59;102932.25;5018588;28;19913;-68
2023/02/13 10:34:17;;;;;;;;;;;;;;;9.87;47.79;102927.25;5010546;28;19922;-68
2023/02/13 10:37:12;;;;;;;;;;;;;;;10.27;49.18;102927.69;5019291;28;19914;-75
2023/02/13 10:40:01;;;;;;;;;;;;;;;10.60;46.61;102914.88;5016548;28;19913;-69
2023/02/13 10:43:05;;;;;;;;;;;;;;;10.71;45.61;102912.00;5009518;28;19918;-69
2023/02/13 10:46:14;;;;;;;;;;;;;;;10.94;47.41;102916.19;5008272;28;19913;-68
2023/02/13 10:49:06;;;;;;;;;;;;;;;10.75;46.47;102906.81;5005387;28;19913;-69
2023/02/13 10:52:03;;;;;;;;;;;;;;;10.94;46.52;102905.31;5008625;28;19918;-69
2023/02/13 10:55:00;;;;;;;;;;;;;;;11.12;46.78;102906.78;5010229;28;19918;-69
2023/02/13 10:57:52;;;;;;;;;;;;;;;11.27;46.62;102914.19;5018678;28;19914;-69
2023/02/13 11:00:45;;;;;;;;;;;;;;;11.56;46.25;102907.22;5016691;28;19917;-69
2023/02/13 11:03:37;;;;;;;;;;;;;;;11.61;45.89;102904.50;5013738;28;19917;-68
2023/02/13 11:06:30;;;;;;;;;;;;;;;11.78;45.52;102912.47;5010967;28;19913;-68
2023/02/13 11:09:22;;;;;;;;;;;;;;;11.82;45.12;102900.78;5006758;28;19913;-68
2023/02/13 11:12:31;;;;;;;;;;;;;;;12.16;44.80;102894.78;5016151;28;19917;-68
2023/02/13 11:15:25;;;;;;;;;;;;;;;12.12;44.71;102893.72;5010631;28;19925;-69
2023/02/13 11:18:24;;;;;;;;;;;;;;;12.48;44.11;102887.16;4997485;28;19913;-69
2023/02/13 11:21:33;;;;;;;;;;;;;;;12.29;44.23;102877.91;4996972;28;19913;-69
2023/02/13 11:24:27;;;;;;;;;;;;;;;12.17;44.59;102886.34;5009326;28;19913;-69
2023/02/13 11:27:24;;;;;;;;;;;;;;;12.38;43.81;102887.16;5021515;28;20291;-69
2023/02/13 11:30:16;;;;;;;;;;;;;;;12.15;43.73;102874.06;5025680;28;19913;-68
2023/02/13 11:33:21;;;;;;;;;;;;;;;12.61;43.42;102870.19;5013504;28;19913;-69
2023/02/13 11:36:15;;;;;;;;;;;;;;;12.42;43.43;102874.59;5014907;28;20298;-69
2023/02/13 11:39:18;;;;;;;;;;;;;;;12.16;43.80;102862.06;5013344;28;20386;-69
2023/02/13 11:42:17;;;;;;;;;;;;;;;12.31;44.07;102860.16;5016000;28;19913;-68
2023/02/13 11:45:09;;;;;;;;;;;;;;;12.82;43.76;102865.50;5014121;28;19922;-69
2023/02/13 11:48:01;;;;;;;;;;;;;;;12.78;42.82;102859.78;5019111;28;19913;-69
2023/02/13 11:50:56;;;;;;;;;;;;;;;12.66;42.96;102851.09;5027950;28;19913;-69
2023/02/13 11:53:48;;;;;;;;;;;;;;;12.58;43.22;102854.38;5019466;28;19912;-69
2023/02/13 11:56:48;;;;;;;;;;;;;;;13.14;42.82;102851.50;5036514;28;19917;-69
2023/02/13 11:59:43;;;;;;;;;;;;;;;13.21;42.43;102847.34;5023366;28;20386;-69
2023/02/13 12:02:44;;;;;;;;;;;;;;;12.34;42.62;102845.16;5013613;28;19913;-69
2023/02/13 12:05:36;;;;;;;;;;;;;;;13.13;42.67;102849.88;5013781;28;19913;-69
2023/02/13 12:08:28;;;;;;;;;;;;;;;13.04;41.95;102840.59;5035447;28;19913;-69
2023/02/13 12:11:21;;;;;;;;;;;;;;;13.25;41.29;102839.44;5027397;28;19912;-71
2023/02/13 12:14:14;;;;;;;;;;;;;;;13.38;41.45;102849.75;5022383;28;19932;-71
2023/02/13 12:17:13;;;;;;;;;;;;;;;13.19;41.50;102840.56;5017553;28;19913;-71
2023/02/13 12:20:05;;;;;;;;;;;;;;;12.96;41.75;102835.69;5015640;28;19913;-71
2023/02/13 12:23:05;;;;;;;;;;;;;;;13.28;41.34;102825.19;4998104;28;19921;-71
2023/02/13 12:26:08;;;;;;;;;;;;;;;13.13;40.79;102820.63;5016095;28;19921;-72
2023/02/13 12:29:07;;;;;;;;;;;;;;;13.40;40.33;102827.59;5024358;28;19913;-72
2023/02/13 12:32:17;;;;;;;;;;;;;;;13.27;41.44;102815.38;5010208;28;19913;-71
2023/02/13 12:35:26;;;;;;;;;;;;;;;13.26;40.59;102819.19;5020065;28;19918;-71
2023/02/13 12:38:31;;;;;;;;;;;;;;;13.59;40.16;102809.44;5010907;28;19917;-72
2023/02/13 12:41:29;;;;;;;;;;;;;;;13.53;39.84;102805.91;4996418;28;19913;-71
2023/02/13 12:44:28;;;;;;;;;;;;;;;13.38;40.21;102803.28;5015388;28;19913;-72
2023/02/13 12:47:20;;;;;;;;;;;;;;;13.55;39.51;102800.16;5012168;28;19942;-71
2023/02/13 12:50:29;;;;;;;;;;;;;;;13.45;40.06;102798.31;5025446;28;19913;-71
2023/02/13 12:53:37;;;;;;;;;;;;;;;13.60;39.78;102794.66;5030678;28;19913;-71
2023/02/13 12:56:30;;;;;;;;;;;;;;;13.65;39.18;102789.97;5027541;28;19917;-71
2023/02/13 12:59:38;;;;;;;;;;;;;;;13.57;39.35;102790.56;5027611;28;19913;-71
2023/02/13 13:02:33;;;;;;;;;;;;;;;13.92;39.54;102791.38;5032281;28;19913;-72
2023/02/13 13:05:26;;;;;;;;;;;;;;;13.71;39.25;102780.63;5009423;28;20313;-71
2023/02/13 13:08:16;;;;;;;;;;;;;;;14.14;38.38;102780.78;5010457;28;20317;-71
2023/02/13 13:11:17;;;;;;;;;;;;;;;14.22;38.69;102784.84;5019652;28;19913;-71
2023/02/13 13:14:13;;;;;;;;;;;;;;;14.26;38.62;102783.97;5007592;28;19914;-71
2023/02/13 13:17:27;;;;;;;;;;;;;;;15.19;36.90;102777.91;5005381;28;19921;-72
2023/02/13 13:20:20;;;;;;;;;;;;;;;17.40;32.49;102773.25;5013437;28;19913;-71
2023/02/13 13:23:22;;;;;;;;;;;;;;;17.98;30.84;102781.47;5013106;28;19913;-71
2023/02/13 13:26:21;;;;;;;;;;;;;;;19.66;28.77;102780.19;5009645;28;20316;-71
2023/02/13 13:29:34;;;;;;;;;;;;;;;18.91;29.37;102775.88;5003984;28;19913;-75
2023/02/13 13:32:22;;;;;;;;;;;;;;;19.49;28.63;102776.28;5016330;28;19913;-75
2023/02/13 13:35:14;;;;;;;;;;;;;;;22.31;24.59;102770.47;5030370;28;19917;-72
2023/02/13 13:38:14;;;;;;;;;;;;;;;17.96;30.21;102772.72;5023665;28;19913;-71
2023/02/13 13:41:23;;;;;;;;;;;;;;;20.25;27.54;102768.16;5021100;28;19914;-72
2023/02/13 13:44:20;;;;;;;;;;;;;;;18.83;28.69;102768.41;5019762;28;19913;-72
2023/02/13 13:47:31;;;;;;;;;;;;;;;20.42;26.85;102765.34;5019140;28;19913;-72
2023/02/13 13:50:24;;;;;;;;;;;;;;;20.17;27.12;102763.47;5016885;28;19917;-71
2023/02/13 13:53:19;;;;;;;;;;;;;;;19.00;28.79;102765.66;5014328;28;19913;-73
2023/02/13 13:56:11;;;;;;;;;;;;;;;17.90;30.33;102761.03;5030077;28;19917;-71
2023/02/13 13:59:03;;;;;;;;;;;;;;;17.88;30.68;102754.19;5026056;28;19913;-71
2023/02/13 14:02:12;;;;;;;;;;;;;;;18.28;30.02;102752.31;5023865;28;20394;-71
2023/02/13 14:05:10;;;;;;;;;;;;;;;20.57;26.55;102750.16;4996821;28;19913;-72
2023/02/13 14:08:03;;;;;;;;;;;;;;;18.12;29.80;102756.63;5009211;28;19921;-72
2023/02/13 14:11:03;;;;;;;;;;;;;;;18.95;29.00;102752.84;5017554;28;20378;-71
2023/02/13 14:13:55;;;;;;;;;;;;;;;18.27;30.01;102742.44;5019990;28;20305;-71
2023/02/13 14:16:47;;;;;;;;;;;;;;;18.62;29.77;102746.94;5020372;28;19917;-72
2023/02/13 14:19:39;;;;;;;;;;;;;;;18.53;29.96;102748.84;5025721;28;19913;-71
2023/02/13 14:22:39;;;;;;;;;;;;;;;18.84;29.49;102739.72;5026138;28;19913;-72
2023/02/13 14:25:31;;;;;;;;;;;;;;;18.57;29.51;102741.59;5023920;28;19913;-73
2023/02/13 14:28:28;;;;;;;;;;;;;;;18.56;29.09;102745.47;5000800;28;19913;-72
2023/02/13 14:31:26;;;;;;;;;;;;;;;17.62;31.01;102732.03;4998251;28;19913;-71
2023/02/13 14:34:21;;;;;;;;;;;;;;;21.72;25.73;102743.09;5008044;28;19913;-75
2023/02/13 14:37:19;;;;;;;;;;;;;;;20.13;27.82;102739.59;5024135;28;19917;-74
2023/02/13 14:40:21;;;;;;;;;;;;;;;19.20;27.92;102737.44;5035612;28;20378;-76
2023/02/13 14:43:27;;;;;;;;;;;;;;;17.03;31.83;102722.94;5021676;28;19914;-74
2023/02/13 14:46:34;;;;;;;;;;;;;;;16.41;32.92;102731.97;5015690;28;19914;-74
2023/02/13 14:49:26;;;;;;;;;;;;;;;16.42;33.21;102722.59;5018968;28;19913;-74
2023/02/13 14:52:21;;;;;;;;;;;;;;;17.53;31.20;102722.84;5016189;28;19914;-74
2023/02/13 14:55:16;;;;;;;;;;;;;;;16.39;32.96;102721.31;5013305;28;19917;-75
2023/02/13 14:58:13;;;;;;;;;;;;;;;16.98;31.43;102720.31;5027026;28;19912;-74
2023/02/13 15:01:32;;;;;;;;;;;;;;;16.05;33.35;102724.41;5027260;28;20370;-74
2023/02/13 15:04:32;;;;;;;;;;;;;;;15.56;34.55;102716.78;4992039;28;20371;-75
2023/02/13 15:07:24;;;;;;;;;;;;;;;15.98;34.33;102717.69;5019004;28;19913;-75
2023/02/13 15:10:32;;;;;;;;;;;;;;;16.50;33.17;102719.16;5035177;28;19913;-74
2023/02/13 15:13:27;;;;;;;;;;;;;;;17.57;30.98;102723.88;5035259;28;19912;-74
2023/02/13 15:16:19;;;;;;;;;;;;;;;16.30;33.61;102714.91;5038727;28;19917;-74
2023/02/13 15:19:15;;;;;;;;;;;;;;;15.60;34.79;102714.25;5019955;28;19913;-74
2023/02/13 15:22:05;;;;;;;;;;;;;;;15.41;35.41;102712.34;5021506;28;19917;-74
2023/02/13 15:24:55;;;;;;;;;;;;;;;15.84;34.91;102706.72;5020593;28;19913;-74
2023/02/13 15:27:47;;;;;;;;;;;;;;;14.51;37.02;102715.28;5015894;28;20286;-74
2023/02/13 15:30:38;;;;;;;;;;;;;;;14.25;37.56;102713.09;5011820;28;19913;-74
2023/02/13 15:33:30;;;;;;;;;;;;;;;14.37;37.50;102711.63;5008530;28;20378;-74
2023/02/13 15:36:22;;;;;;;;;;;;;;;14.17;37.71;102705.53;5011799;28;19918;-74
2023/02/13 15:39:17;;;;;;;;;;;;;;;14.10;38.22;102706.69;5015006;28;19913;-74
2023/02/13 15:42:10;;;;;;;;;;;;;;;13.57;39.32;102697.63;5019345;28;19913;-77
2023/02/13 15:45:01;;;;;;;;;;;;;;;13.75;39.12;102703.50;5022949;28;19917;-71
2023/02/13 15:47:54;;;;;;;;;;;;;;;13.80;39.39;102708.91;5007496;28;20375;-71
2023/02/13 15:50:46;;;;;;;;;;;;;;;13.98;39.03;102703.53;5015040;28;19913;-71